الصفحة الرئيسية
METAR-TAF:

METAR-TAF

مطار :

بانغي, جمهورية أفريقيا الوسطى

دائرة عرض: 04-24N, خط طول: 018-31E, ارتفاع: 365 متر

مراقبة الطقس الحالي

تاريخ ووقت الإصدار 44 دقيقة قبل الساعة 10:00UTC
ريح 4 عقدة من الغرب
درجة الحرارة 28°درجة مئوية
الرطوبة 74%
ضغط 1011 hPa
الرؤية: 8000 متر
غيوم مفككة على ارتفاع 2300 قدم

METAR: FEFF 121000Z 28004KT 8000 BKN023 28/23 Q1011 NOSIG

زمن: 11:44 (10:44 UTC)

توقعات

تاريخ ووقت الإصدار 5ساعات و 44 دقيقة قبل الساعة 05:00UTC
التوقعات صالحة من12 الساعة 06 UTC إلى 13 الساعة 12 UTC
ريح 2 عقدةمن اتجاهات متغيرة
الرؤية: 8000 متر
غيوم قليلة على ارتفاع 1000 قدم
نظرية الاحتمالات 30% :
مؤقت
من 12 الساعة 14 UTC إلى 12 الساعة 18 UTC
ريح 13 عقدة من الشرق
غيوم مفككة على ارتفاع 1300 قدم
غيوم قليلة على ارتفاع 4000 قدم, مزنة ركامية.
عاصفة رعدية, مطر خفيف
مؤقت
من 13 الساعة 03 UTC إلى 13 الساعة 06 UTC
الرؤية: 3000 متر
غشاء

TAF: FEFF 120500Z 1206/1312 VRB02KT 8000 FEW010 PROB30 TEMPO 1214/1218 08013KT -TSRA BKN013 FEW040CB TEMPO 1303/1306 3000 BR

أرصاد الطقس والتوقعات من أكثر من 4000 مطار (تقارير الطقس للمطار METAR والتنبؤ بالطقس بالمطارTAF).

المحطات المتاحة هي النقط الصفراء والحمراء على الخريطة.

حرك المؤشر فوق النقطة لمعرفة اسم المحطة.

ثم انقر لمعرفة أرصاد وتوقعات الطقس.

لتغيير الخارطة: اضغط على الأزرار الخضراء مع رمز الصليب الأسود للتكبير. على الزر الأخضر مع شرطة للتصغير، أو على الأسهم الخضراء للخرائط المجاورة.


METAR-TAF: